createdAt,value
2023-02-07T00:01:47.473Z,6.77
2023-02-07T00:04:15.697Z,7.03
2023-02-07T00:06:43.881Z,7.07
2023-02-07T00:09:13.797Z,7.60
2023-02-07T00:11:42.277Z,6.73
2023-02-07T00:14:11.296Z,6.93
2023-02-07T00:16:39.828Z,7.10
2023-02-07T00:19:08.105Z,7.40
2023-02-07T00:21:39.592Z,7.27
2023-02-07T00:24:08.050Z,7.27
2023-02-07T00:26:37.641Z,7.23
2023-02-07T00:29:06.344Z,6.77
2023-02-07T00:31:36.194Z,8.40
2023-02-07T00:34:05.441Z,7.70
2023-02-07T00:36:34.285Z,8.50
2023-02-07T00:39:03.249Z,7.50
2023-02-07T00:41:31.493Z,6.77
2023-02-07T00:44:01.051Z,8.17
2023-02-07T00:46:29.600Z,7.13
2023-02-07T00:48:57.816Z,6.83
2023-02-07T00:51:26.570Z,7.27
2023-02-07T00:53:54.884Z,8.00
2023-02-07T00:56:23.426Z,7.33
2023-02-07T00:58:51.692Z,6.37
2023-02-07T01:01:21.434Z,7.17
2023-02-07T01:03:49.662Z,7.20
2023-02-07T01:06:17.988Z,7.13
2023-02-07T01:08:46.230Z,7.83
2023-02-07T01:11:16.545Z,7.47
2023-02-07T01:13:45.349Z,6.87
2023-02-07T01:16:22.431Z,7.43
2023-02-07T01:18:50.647Z,7.33
2023-02-07T01:21:19.445Z,7.07
2023-02-07T01:23:47.759Z,7.90
2023-02-07T01:26:16.151Z,8.47
2023-02-07T01:28:44.608Z,8.37
2023-02-07T01:31:14.052Z,8.87
2023-02-07T01:33:43.697Z,8.70
2023-02-07T01:36:13.588Z,9.57
2023-02-07T01:38:42.937Z,9.77
2023-02-07T01:41:11.944Z,8.83
2023-02-07T01:43:54.354Z,9.10
2023-02-07T01:46:22.573Z,10.47
2023-02-07T01:48:52.952Z,11.43
2023-02-07T01:51:21.161Z,11.50
2023-02-07T01:53:49.486Z,11.60
2023-02-07T01:56:30.990Z,12.30
2023-02-07T01:58:59.733Z,11.03
2023-02-07T02:01:28.061Z,10.83
2023-02-07T02:03:59.520Z,11.20
2023-02-07T02:06:29.665Z,9.50
2023-02-07T02:08:59.336Z,9.03
2023-02-07T02:11:35.157Z,10.07
2023-02-07T02:14:08.595Z,8.77
2023-02-07T02:16:39.965Z,8.50
2023-02-07T02:19:28.371Z,7.27
2023-02-07T02:22:14.296Z,7.93
2023-02-07T02:24:58.514Z,7.40
2023-02-07T02:27:32.551Z,7.00
2023-02-07T02:30:09.373Z,7.70
2023-02-07T02:32:58.364Z,7.60
2023-02-07T02:35:32.236Z,7.07
2023-02-07T02:38:04.221Z,6.97
2023-02-07T02:40:34.991Z,7.50
2023-02-07T02:43:06.125Z,7.33
2023-02-07T02:45:35.252Z,7.67
2023-02-07T02:48:05.632Z,7.40
2023-02-07T02:50:35.727Z,7.93
2023-02-07T02:53:04.066Z,7.00
2023-02-07T02:55:43.988Z,7.90
2023-02-07T02:58:20.259Z,7.90
2023-02-07T03:00:55.219Z,7.23
2023-02-07T03:03:34.069Z,8.00
2023-02-07T03:06:07.394Z,7.80
2023-02-07T03:08:39.861Z,7.70
2023-02-07T03:11:09.487Z,7.57
2023-02-07T03:13:41.069Z,7.57
2023-02-07T03:16:13.673Z,7.47
2023-02-07T03:18:47.496Z,7.33
2023-02-07T03:21:18.677Z,7.67
2023-02-07T03:23:48.358Z,8.37
2023-02-07T03:26:16.701Z,7.73
2023-02-07T03:28:45.806Z,8.20
2023-02-07T03:31:16.251Z,7.60
2023-02-07T03:33:48.111Z,7.37
2023-02-07T03:36:18.585Z,7.10
2023-02-07T03:38:47.096Z,7.40
2023-02-07T03:41:18.402Z,7.67
2023-02-07T03:43:46.615Z,8.00
2023-02-07T03:46:14.958Z,7.73
2023-02-07T03:48:43.166Z,7.47
2023-02-07T03:51:12.729Z,8.10
2023-02-07T03:53:40.905Z,7.70
2023-02-07T03:56:09.348Z,8.37
2023-02-07T03:58:37.529Z,7.83
2023-02-07T04:01:06.143Z,8.23
2023-02-07T04:03:34.401Z,8.17
2023-02-07T04:06:02.661Z,7.80
2023-02-07T04:08:33.363Z,7.23
2023-02-07T04:11:01.959Z,7.90
2023-02-07T04:13:30.555Z,7.97
2023-02-07T04:15:59.102Z,8.00
2023-02-07T04:18:27.415Z,7.87
2023-02-07T04:21:02.182Z,7.60
2023-02-07T04:23:31.726Z,8.17
2023-02-07T04:26:00.210Z,7.40
2023-02-07T04:28:28.647Z,8.60
2023-02-07T04:30:57.261Z,8.10
2023-02-07T04:33:25.877Z,8.27
2023-02-07T04:35:57.520Z,8.13
2023-02-07T04:38:26.107Z,8.60
2023-02-07T04:40:59.397Z,8.80
2023-02-07T04:43:27.612Z,8.40
2023-02-07T04:45:55.829Z,9.03
2023-02-07T04:48:24.011Z,9.13
2023-02-07T04:50:52.227Z,10.40
2023-02-07T04:53:20.437Z,10.03
2023-02-07T04:55:49.976Z,10.07
2023-02-07T04:58:19.624Z,10.10
2023-02-07T05:00:48.173Z,10.30
2023-02-07T05:03:16.469Z,10.13
2023-02-07T05:05:45.420Z,10.60
2023-02-07T05:08:14.246Z,10.03
2023-02-07T05:10:42.735Z,10.57
2023-02-07T05:13:11.052Z,9.37
2023-02-07T05:15:40.757Z,9.20
2023-02-07T05:18:09.068Z,9.53
2023-02-07T05:20:37.501Z,10.23
2023-02-07T05:23:05.761Z,8.73
2023-02-07T05:25:33.935Z,9.37
2023-02-07T05:28:02.199Z,9.87
2023-02-07T05:30:30.596Z,9.40
2023-02-07T05:33:05.494Z,9.07
2023-02-07T05:35:34.563Z,9.67
2023-02-07T05:38:02.868Z,10.07
2023-02-07T05:40:31.083Z,9.90
2023-02-07T05:42:59.436Z,9.50
2023-02-07T05:45:27.750Z,9.40
2023-02-07T05:47:55.915Z,10.33
2023-02-07T05:50:25.838Z,10.10
2023-02-07T05:52:54.070Z,9.67
2023-02-07T05:55:22.603Z,10.40
2023-02-07T05:57:50.828Z,10.20
2023-02-07T06:00:20.349Z,10.70
2023-02-07T06:02:48.613Z,10.17
2023-02-07T06:05:18.048Z,10.50
2023-02-07T06:07:47.852Z,9.60
2023-02-07T06:10:16.739Z,9.67
2023-02-07T06:12:44.940Z,10.57
2023-02-07T06:15:13.184Z,10.57
2023-02-07T06:17:41.501Z,10.87
2023-02-07T06:20:10.203Z,10.93
2023-02-07T06:22:38.579Z,11.13
2023-02-07T06:25:11.776Z,10.70
2023-02-07T06:27:40.714Z,11.20
2023-02-07T06:30:09.612Z,11.67
2023-02-07T06:32:37.793Z,13.60
2023-02-07T06:35:06.483Z,15.23
2023-02-07T06:37:34.649Z,16.73
2023-02-07T06:40:03.245Z,17.90
2023-02-07T06:42:32.828Z,19.37
2023-02-07T06:45:01.032Z,19.53
2023-02-07T06:47:29.204Z,19.50
2023-02-07T06:49:57.425Z,20.90
2023-02-07T06:52:25.649Z,21.40
2023-02-07T06:54:54.021Z,21.47
2023-02-07T06:57:22.241Z,21.97
2023-02-07T06:59:51.734Z,21.43
2023-02-07T07:02:19.977Z,20.20
2023-02-07T07:04:48.682Z,20.77
2023-02-07T07:07:16.866Z,20.73
2023-02-07T07:09:45.027Z,22.57
2023-02-07T07:12:13.210Z,22.33
2023-02-07T07:14:41.420Z,22.37
2023-02-07T07:17:10.958Z,21.57
2023-02-07T07:19:39.153Z,23.07
2023-02-07T07:22:07.295Z,22.97
2023-02-07T07:24:35.516Z,23.30
2023-02-07T07:27:03.694Z,24.23
2023-02-07T07:29:31.924Z,23.43
2023-02-07T07:32:00.088Z,22.83
2023-02-07T07:34:29.658Z,22.87
2023-02-07T07:36:58.298Z,24.40
2023-02-07T07:39:26.715Z,24.03
2023-02-07T07:41:54.928Z,23.53
2023-02-07T07:44:23.210Z,22.80
2023-02-07T07:46:51.425Z,23.30
2023-02-07T07:49:19.613Z,22.90
2023-02-07T07:51:49.954Z,23.07
2023-02-07T07:54:18.420Z,22.30
2023-02-07T07:56:46.669Z,23.23
2023-02-07T07:59:23.637Z,24.43
2023-02-07T08:01:52.835Z,24.27
2023-02-07T08:04:21.068Z,24.73
2023-02-07T08:06:50.556Z,23.97
2023-02-07T08:09:18.761Z,22.83
2023-02-07T08:11:47.012Z,23.00
2023-02-07T08:14:15.328Z,22.27
2023-02-07T08:16:43.506Z,22.37
2023-02-07T08:19:11.718Z,22.13
2023-02-07T08:21:39.936Z,21.53
2023-02-07T08:24:09.654Z,21.03
2023-02-07T08:26:37.880Z,21.67
2023-02-07T08:29:06.120Z,23.13
2023-02-07T08:31:34.405Z,22.43
2023-02-07T08:34:02.625Z,20.83
2023-02-07T08:36:30.880Z,21.07
2023-02-07T08:38:59.267Z,21.10
2023-02-07T08:41:28.791Z,20.83
2023-02-07T08:43:57.062Z,21.50
2023-02-07T08:46:25.329Z,20.30
2023-02-07T08:48:53.576Z,21.40
2023-02-07T08:51:21.764Z,20.90
2023-02-07T08:53:49.945Z,20.67
2023-02-07T08:56:18.201Z,20.90
2023-02-07T08:58:47.756Z,21.30
2023-02-07T09:01:16.385Z,21.33
2023-02-07T09:03:44.636Z,20.90
2023-02-07T09:06:13.505Z,21.23
2023-02-07T09:08:41.706Z,21.60
2023-02-07T09:11:09.959Z,23.13
2023-02-07T09:13:38.332Z,21.33
2023-02-07T09:16:08.056Z,21.70
2023-02-07T09:18:36.232Z,21.47
2023-02-07T09:21:04.593Z,22.40
2023-02-07T09:23:35.685Z,22.80
2023-02-07T09:26:05.097Z,21.57
2023-02-07T09:28:33.705Z,21.10
2023-02-07T09:31:04.524Z,22.43
2023-02-07T09:33:34.876Z,22.60
2023-02-07T09:36:03.074Z,23.63
2023-02-07T09:38:31.360Z,22.97
2023-02-07T09:41:00.323Z,22.63
2023-02-07T09:43:38.445Z,23.83
2023-02-07T09:46:11.018Z,24.87
2023-02-07T09:48:46.536Z,24.67
2023-02-07T09:51:16.035Z,24.30
2023-02-07T09:53:45.660Z,24.10
2023-02-07T09:56:17.676Z,23.43
2023-02-07T09:58:47.606Z,22.57
2023-02-07T10:01:17.306Z,22.00
2023-02-07T10:03:50.769Z,21.80
2023-02-07T10:06:22.555Z,22.50
2023-02-07T10:08:53.503Z,21.83
2023-02-07T10:11:25.570Z,21.60
2023-02-07T10:14:07.410Z,20.07
2023-02-07T10:16:47.233Z,20.50
2023-02-07T10:19:23.113Z,20.10
2023-02-07T10:21:55.299Z,19.70
2023-02-07T10:24:29.895Z,19.90
2023-02-07T10:27:00.357Z,21.03
2023-02-07T10:29:43.589Z,19.57
2023-02-07T10:32:14.536Z,19.43
2023-02-07T10:34:47.761Z,18.40
2023-02-07T10:37:19.660Z,18.70
2023-02-07T10:39:51.038Z,19.20
2023-02-07T10:42:20.181Z,19.60
2023-02-07T10:44:48.449Z,16.63
2023-02-07T10:47:17.685Z,17.43
2023-02-07T10:49:48.746Z,18.70
2023-02-07T10:52:26.295Z,17.83
2023-02-07T10:54:55.159Z,16.47
2023-02-07T10:57:23.469Z,17.00
2023-02-07T10:59:58.987Z,18.57
2023-02-07T11:02:42.915Z,18.47
2023-02-07T11:05:26.026Z,19.13
2023-02-07T11:07:59.656Z,19.80
2023-02-07T11:10:31.702Z,19.67
2023-02-07T11:13:00.440Z,19.47
2023-02-07T11:15:31.451Z,18.73
2023-02-07T11:18:00.004Z,18.53
2023-02-07T11:20:30.114Z,18.03
2023-02-07T11:22:59.902Z,19.07
2023-02-07T11:25:31.887Z,18.60
2023-02-07T11:28:00.709Z,19.27
2023-02-07T11:30:29.825Z,19.67
2023-02-07T11:32:59.855Z,18.43
2023-02-07T11:35:28.369Z,17.60
2023-02-07T11:38:05.294Z,18.57
2023-02-07T11:40:38.690Z,18.30
2023-02-07T11:43:12.099Z,18.03
2023-02-07T11:45:43.194Z,18.47
2023-02-07T11:48:18.990Z,19.80
2023-02-07T11:50:48.918Z,20.60
2023-02-07T11:53:24.989Z,20.40
2023-02-07T11:55:55.077Z,21.20
2023-02-07T11:58:27.702Z,20.67
2023-02-07T12:00:56.519Z,19.17
2023-02-07T12:03:25.637Z,20.00
2023-02-07T12:05:55.424Z,18.40
2023-02-07T12:08:26.418Z,18.00
2023-02-07T12:10:56.519Z,18.67
2023-02-07T12:13:26.343Z,18.37
2023-02-07T12:15:56.644Z,18.60
2023-02-07T12:18:30.230Z,19.43
2023-02-07T12:21:00.237Z,19.37
2023-02-07T12:23:42.288Z,19.97
2023-02-07T12:26:17.716Z,21.53
2023-02-07T12:28:48.949Z,20.83
2023-02-07T12:31:21.166Z,21.10
2023-02-07T12:33:53.757Z,20.27
2023-02-07T12:36:22.838Z,19.40
2023-02-07T12:38:54.287Z,18.97
2023-02-07T12:41:24.545Z,17.93
2023-02-07T12:44:05.524Z,19.23
2023-02-07T12:46:41.243Z,19.40
2023-02-07T12:49:28.520Z,20.00
2023-02-07T12:52:06.301Z,18.97
2023-02-07T12:54:42.096Z,19.47
2023-02-07T12:57:12.374Z,19.30
2023-02-07T12:59:45.654Z,18.10
2023-02-07T13:02:23.007Z,17.33
2023-02-07T13:04:56.018Z,17.67
2023-02-07T13:07:32.682Z,16.87
2023-02-07T13:10:07.413Z,15.83
2023-02-07T13:12:37.712Z,15.90
2023-02-07T13:15:11.187Z,14.83
2023-02-07T13:17:43.360Z,15.17
2023-02-07T13:20:18.421Z,14.70
2023-02-07T13:22:49.781Z,14.40
2023-02-07T13:25:23.600Z,15.50
2023-02-07T13:27:54.290Z,14.50
2023-02-07T13:30:22.952Z,12.73
2023-02-07T13:32:51.936Z,14.47
2023-02-07T13:35:22.335Z,14.43
2023-02-07T13:37:52.776Z,13.70
2023-02-07T13:40:32.102Z,13.30
2023-02-07T13:43:05.064Z,13.30
2023-02-07T13:45:37.921Z,13.57
2023-02-07T13:48:12.206Z,15.80
2023-02-07T13:50:49.157Z,14.33
2023-02-07T13:53:30.358Z,14.87
2023-02-07T13:56:04.457Z,14.50
2023-02-07T13:59:09.318Z,14.90
2023-02-07T14:01:37.707Z,14.70
2023-02-07T14:04:07.009Z,13.97
2023-02-07T14:06:38.127Z,13.83
2023-02-07T14:09:10.016Z,13.57
2023-02-07T14:11:43.855Z,13.87
2023-02-07T14:14:16.777Z,13.60
2023-02-07T14:16:47.206Z,11.83
2023-02-07T14:19:17.709Z,12.70
2023-02-07T14:21:46.244Z,12.40
2023-02-07T14:24:22.864Z,11.93
2023-02-07T14:27:09.038Z,11.50
2023-02-07T14:29:55.378Z,11.33
2023-02-07T14:32:43.962Z,10.53
2023-02-07T14:35:31.553Z,9.03
2023-02-07T14:38:03.268Z,9.43
2023-02-07T14:40:35.268Z,9.17
2023-02-07T14:43:06.104Z,9.13
2023-02-07T14:45:37.226Z,9.13
2023-02-07T14:48:05.924Z,8.83
2023-02-07T14:50:34.540Z,8.07
2023-02-07T14:53:06.009Z,8.70
2023-02-07T14:55:37.342Z,8.60
2023-02-07T14:58:08.553Z,8.90
2023-02-07T15:00:41.210Z,7.83
2023-02-07T15:03:13.446Z,8.10
2023-02-07T15:05:49.903Z,7.57
2023-02-07T15:08:19.514Z,6.77
2023-02-07T15:10:53.519Z,6.20
2023-02-07T15:13:24.723Z,6.30
2023-02-07T15:15:55.372Z,6.70
2023-02-07T15:18:25.197Z,7.00
2023-02-07T15:20:56.789Z,6.67
2023-02-07T15:23:26.011Z,7.33
2023-02-07T15:25:54.257Z,7.50
2023-02-07T15:28:27.357Z,6.80
2023-02-07T15:30:58.749Z,6.33
2023-02-07T15:33:28.036Z,6.90
2023-02-07T15:35:56.208Z,8.50
2023-02-07T15:38:25.782Z,8.80
2023-02-07T15:40:55.220Z,8.77
2023-02-07T15:43:27.829Z,10.17
2023-02-07T15:46:05.013Z,11.63
2023-02-07T15:48:34.037Z,11.07
2023-02-07T15:51:03.182Z,11.83
2023-02-07T15:53:32.293Z,11.10
2023-02-07T15:56:00.644Z,11.50
2023-02-07T15:58:29.867Z,10.37
2023-02-07T16:01:02.399Z,11.10
2023-02-07T16:03:32.494Z,10.47
2023-02-07T16:06:05.261Z,10.37
2023-02-07T16:08:34.975Z,11.33
2023-02-07T16:11:16.531Z,10.77
2023-02-07T16:13:46.448Z,11.20
2023-02-07T16:16:20.095Z,12.07
2023-02-07T16:18:49.910Z,13.47
2023-02-07T16:21:20.389Z,13.60
2023-02-07T16:23:48.977Z,15.13
2023-02-07T16:26:17.846Z,11.33
2023-02-07T16:28:46.605Z,12.10
2023-02-07T16:31:15.309Z,12.13
2023-02-07T16:33:43.571Z,11.37
2023-02-07T16:36:16.151Z,11.73
2023-02-07T16:38:44.487Z,11.70
2023-02-07T16:41:21.200Z,11.07
2023-02-07T16:43:49.333Z,11.27
2023-02-07T16:46:17.589Z,11.03
2023-02-07T16:48:45.821Z,12.50
2023-02-07T16:51:16.901Z,11.37
2023-02-07T16:53:45.394Z,10.70
2023-02-07T16:56:14.696Z,11.50
2023-02-07T16:58:42.909Z,10.80
2023-02-07T17:01:17.167Z,12.00
2023-02-07T17:03:45.366Z,11.93
2023-02-07T17:06:16.225Z,12.10
2023-02-07T17:08:44.357Z,11.93
2023-02-07T17:11:15.057Z,11.93
2023-02-07T17:13:43.300Z,12.13
2023-02-07T17:16:13.614Z,11.27
2023-02-07T17:18:42.160Z,12.47
2023-02-07T17:21:11.599Z,11.73
2023-02-07T17:23:42.652Z,11.73
2023-02-07T17:26:17.294Z,12.07
2023-02-07T17:28:45.507Z,12.30
2023-02-07T17:31:14.271Z,11.60
2023-02-07T17:33:42.437Z,12.03
2023-02-07T17:36:12.671Z,12.17
2023-02-07T17:38:42.246Z,13.17
2023-02-07T17:41:10.810Z,14.00
2023-02-07T17:43:41.101Z,12.67
2023-02-07T17:46:13.584Z,12.87
2023-02-07T17:48:41.817Z,13.10
2023-02-07T17:51:10.015Z,11.93
2023-02-07T17:53:38.213Z,13.53
2023-02-07T17:56:08.251Z,12.50
2023-02-07T17:58:38.009Z,11.87
2023-02-07T18:01:06.670Z,11.87
2023-02-07T18:03:34.919Z,11.87
2023-02-07T18:06:03.070Z,12.20
2023-02-07T18:08:31.290Z,12.20
2023-02-07T18:11:04.077Z,11.87
2023-02-07T18:13:33.610Z,12.07
2023-02-07T18:16:01.864Z,13.50
2023-02-07T18:18:30.170Z,12.60
2023-02-07T18:20:58.388Z,13.40
2023-02-07T18:23:26.588Z,13.00
2023-02-07T18:25:54.770Z,13.43
2023-02-07T18:28:23.006Z,13.27
2023-02-07T18:30:52.720Z,13.07
2023-02-07T18:33:20.885Z,14.10
2023-02-07T18:35:51.422Z,13.03
2023-02-07T18:38:19.571Z,15.17
2023-02-07T18:40:47.730Z,13.97
2023-02-07T18:43:15.892Z,16.27
2023-02-07T18:45:44.626Z,15.00
2023-02-07T18:48:14.419Z,15.30
2023-02-07T18:50:44.538Z,14.60
2023-02-07T18:53:12.744Z,14.13
2023-02-07T18:55:41.001Z,14.90
2023-02-07T18:58:09.187Z,13.77
2023-02-07T19:00:37.862Z,13.43
2023-02-07T19:03:06.329Z,13.17
2023-02-07T19:05:35.842Z,13.97
2023-02-07T19:08:04.112Z,13.60
2023-02-07T19:10:32.232Z,12.33
2023-02-07T19:13:00.449Z,12.13
2023-02-07T19:15:28.695Z,12.53
2023-02-07T19:17:56.901Z,12.10
2023-02-07T19:20:25.053Z,12.60
2023-02-07T19:22:54.631Z,11.60
2023-02-07T19:25:23.146Z,11.40
2023-02-07T19:27:51.340Z,10.93
2023-02-07T19:30:19.589Z,11.37
2023-02-07T19:32:47.809Z,11.40
2023-02-07T19:35:16.013Z,11.83
2023-02-07T19:37:44.211Z,10.63
2023-02-07T19:40:13.884Z,12.17
2023-02-07T19:42:42.014Z,11.53
2023-02-07T19:45:10.664Z,12.13
2023-02-07T19:47:38.825Z,11.80
2023-02-07T19:50:07.580Z,12.20
2023-02-07T19:52:35.728Z,14.83
2023-02-07T19:55:04.402Z,16.43
2023-02-07T19:57:35.118Z,16.47
2023-02-07T20:00:03.619Z,15.43
2023-02-07T20:02:32.278Z,14.70
2023-02-07T20:05:00.467Z,14.50
2023-02-07T20:07:28.768Z,14.10
2023-02-07T20:09:56.996Z,12.57
2023-02-07T20:12:25.169Z,13.43
2023-02-07T20:14:54.755Z,13.90
2023-02-07T20:17:22.982Z,13.47
2023-02-07T20:19:51.979Z,13.47
2023-02-07T20:22:20.170Z,13.90
2023-02-07T20:24:48.288Z,13.87
2023-02-07T20:27:16.409Z,13.87
2023-02-07T20:29:44.609Z,13.47
2023-02-07T20:32:15.252Z,13.67
2023-02-07T20:34:43.395Z,13.60
2023-02-07T20:37:12.374Z,13.70
2023-02-07T20:39:40.663Z,14.20
2023-02-07T20:42:08.888Z,14.63
2023-02-07T20:44:37.105Z,15.20
2023-02-07T20:47:06.316Z,15.80
2023-02-07T20:49:35.890Z,14.47
2023-02-07T20:52:04.098Z,14.57
2023-02-07T20:54:32.591Z,15.17
2023-02-07T20:57:00.784Z,15.13
2023-02-07T20:59:30.192Z,16.63
2023-02-07T21:01:58.377Z,18.80
2023-02-07T21:04:26.978Z,17.27
2023-02-07T21:06:56.689Z,16.63
2023-02-07T21:09:25.053Z,17.10
2023-02-07T21:11:54.523Z,16.30
2023-02-07T21:14:25.506Z,17.77
2023-02-07T21:16:54.013Z,16.33
2023-02-07T21:19:25.341Z,15.83
2023-02-07T21:21:55.041Z,15.90
2023-02-07T21:24:24.984Z,15.37
2023-02-07T21:26:54.242Z,15.60
2023-02-07T21:29:22.803Z,15.07
2023-02-07T21:31:51.272Z,16.03
2023-02-07T21:34:21.302Z,14.87
2023-02-07T21:36:50.150Z,16.93
2023-02-07T21:39:18.567Z,15.80
2023-02-07T21:41:48.597Z,15.23
2023-02-07T21:44:17.425Z,16.60
2023-02-07T21:46:48.280Z,15.93
2023-02-07T21:49:17.135Z,13.63
2023-02-07T21:51:46.057Z,14.27
2023-02-07T21:54:14.201Z,13.60
2023-02-07T21:56:43.233Z,15.03
2023-02-07T21:59:14.355Z,15.57
2023-02-07T22:01:42.836Z,15.77
2023-02-07T22:04:11.649Z,17.43
2023-02-07T22:06:41.988Z,15.07
2023-02-07T22:09:10.867Z,14.97
2023-02-07T22:11:39.344Z,14.43
2023-02-07T22:14:07.647Z,14.47
2023-02-07T22:16:37.437Z,13.57
2023-02-07T22:19:06.796Z,13.33
2023-02-07T22:21:35.949Z,14.90
2023-02-07T22:24:05.002Z,14.57
2023-02-07T22:26:33.605Z,15.33
2023-02-07T22:29:01.827Z,14.73
2023-02-07T22:31:31.750Z,16.50
2023-02-07T22:34:02.604Z,16.13
2023-02-07T22:36:32.034Z,16.40
2023-02-07T22:39:00.581Z,16.00
2023-02-07T22:41:29.151Z,15.10
2023-02-07T22:43:57.493Z,14.73
2023-02-07T22:46:26.173Z,14.87
2023-02-07T22:48:54.551Z,14.53
2023-02-07T22:51:25.766Z,14.37
2023-02-07T22:53:55.295Z,14.53
2023-02-07T22:56:23.755Z,15.60
2023-02-07T22:58:51.948Z,14.57
2023-02-07T23:01:21.220Z,15.87
2023-02-07T23:03:49.511Z,14.97
2023-02-07T23:06:18.009Z,15.17
2023-02-07T23:08:47.699Z,14.47
2023-02-07T23:11:16.758Z,15.03
2023-02-07T23:13:45.102Z,13.90
2023-02-07T23:16:14.287Z,14.87
2023-02-07T23:18:42.940Z,14.50
2023-02-07T23:21:11.585Z,14.73
2023-02-07T23:23:39.826Z,14.77
2023-02-07T23:26:10.092Z,15.83
2023-02-07T23:28:38.836Z,15.03
2023-02-07T23:31:07.677Z,14.53
2023-02-07T23:33:36.565Z,14.30
2023-02-07T23:36:05.563Z,14.27
2023-02-07T23:38:33.722Z,14.50
2023-02-07T23:41:01.977Z,15.00
2023-02-07T23:43:31.561Z,14.67
2023-02-07T23:45:59.813Z,14.57
2023-02-07T23:48:28.079Z,14.13
2023-02-07T23:50:57.604Z,15.13
2023-02-07T23:53:26.029Z,14.67
2023-02-07T23:55:55.135Z,14.73
2023-02-07T23:58:23.546Z,14.47
